Time;durP1;ratioP1;P1;durP2;ratioP2;P2;SDS_P1;SDS_P2;PMS_P1;PMS_P2;Temp;Humidity;BMP_temperature;BMP_pressure;BME280_temperature;BME280_humidity;BME280_pressure;Samples;Min_cycle;Max_cycle;Signal;HPM_P1;HPM_P2
2022/08/15 00:00:38;;;;;;;5.78;5.18;;;25.60;60.20;;;;;;5053533;28;20127;-75
2022/08/15 00:03:06;;;;;;;5.40;4.90;;;25.70;60.80;;;;;;5070342;28;20510;-75
2022/08/15 00:05:35;;;;;;;5.53;5.03;;;25.60;58.00;;;;;;5052336;28;20059;-74
2022/08/15 00:08:03;;;;;;;6.10;5.50;;;25.70;58.10;;;;;;5033573;28;20065;-75
2022/08/15 00:10:30;;;;;;;7.45;5.95;;;25.70;58.10;;;;;;5033295;28;20057;-75
2022/08/15 00:13:00;;;;;;;6.63;6.03;;;25.70;58.10;;;;;;5031917;28;20391;-72
2022/08/15 00:15:27;;;;;;;6.72;6.03;;;25.80;58.20;;;;;;5034467;28;20420;-72
2022/08/15 00:17:55;;;;;;;6.25;5.65;;;25.70;58.20;;;;;;5053944;28;20526;-75
2022/08/15 00:20:22;;;;;;;5.90;5.30;;;25.70;58.20;;;;;;5054087;28;20041;-72
2022/08/15 00:22:51;;;;;;;6.35;5.70;;;25.70;58.20;;;;;;5054012;28;20071;-72
2022/08/15 00:25:18;;;;;;;5.93;5.32;;;25.60;58.10;;;;;;5040829;28;20104;-75
2022/08/15 00:27:45;;;;;;;6.50;5.45;;;25.70;58.20;;;;;;5034315;28;20405;-72
2022/08/15 00:30:13;;;;;;;6.45;5.57;;;25.60;58.20;;;;;;5034022;28;20060;-72
2022/08/15 00:32:40;;;;;;;5.63;5.13;;;25.80;61.00;;;;;;5033133;28;20057;-72
2022/08/15 00:35:35;;;;;;;5.60;5.10;;;25.60;58.20;;;;;;5043759;28;20053;-73
2022/08/15 00:37:56;;;;;;;6.68;6.03;;;25.60;58.10;;;;;;5052964;28;20056;-72
2022/08/15 00:40:23;;;;;;;5.78;5.28;;;25.60;58.20;;;;;;5053856;28;20068;-72
2022/08/15 00:42:49;;;;;;;5.85;5.28;;;25.60;60.40;;;;;;5053969;28;20048;-72
2022/08/15 00:45:18;;;;;;;5.97;5.38;;;26.90;61.20;;;;;;5044871;28;20071;-72
2022/08/15 00:48:41;;;;;;;6.68;5.70;;;25.60;58.20;;;;;;5036320;28;20136;-75
2022/08/15 00:50:32;;;;;;;5.72;5.22;;;25.60;58.20;;;;;;5033475;28;20069;-73
2022/08/15 00:52:59;;;;;;;6.00;5.45;;;24.20;60.00;;;;;;5033765;28;20052;-72
2022/08/15 00:55:27;;;;;;;6.47;5.82;;;25.60;58.20;;;;;;5045734;28;20494;-72
2022/08/15 00:57:53;;;;;;;7.78;5.85;;;25.60;58.20;;;;;;5053829;28;20136;-73
2022/08/15 01:00:23;;;;;;;5.95;5.38;;;25.60;58.20;;;;;;5053285;28;20147;-73
2022/08/15 01:02:50;;;;;;;5.97;5.03;;;25.60;58.20;;;;;;5053403;28;20421;-76
2022/08/15 01:05:17;;;;;;;6.35;5.75;;;25.50;60.50;;;;;;5051238;28;20041;-75
2022/08/15 01:07:44;;;;;;;6.55;5.82;;;25.50;58.10;;;;;;5051994;28;20079;-75
2022/08/15 01:10:10;;;;;;;6.05;5.45;;;25.60;58.20;;;;;;5053054;28;20040;-76
2022/08/15 01:12:37;;;;;;;5.78;5.22;;;25.60;58.20;;;;;;5052186;28;20350;-76
2022/08/15 01:15:08;;;;;;;5.75;5.20;;;25.50;58.10;;;;;;5042644;28;20064;-76
2022/08/15 01:17:36;;;;;;;6.22;5.63;;;25.50;58.10;;;;;;5033402;28;20136;-75
2022/08/15 01:20:06;;;;;;;8.55;5.80;;;25.60;58.20;;;;;;5031829;28;20140;-75
2022/08/15 01:22:47;;;;;;;5.78;5.28;;;25.50;59.60;;;;;;5031869;28;20053;-76
2022/08/15 01:25:17;;;;;;;6.72;5.97;;;25.40;61.10;;;;;;5041365;28;20052;-75
2022/08/15 01:27:48;;;;;;;5.97;5.38;;;25.40;59.60;;;;;;5052057;28;20057;-74
2022/08/15 01:30:17;;;;;;;6.22;5.63;;;25.50;58.20;;;;;;5051788;28;20083;-75
2022/08/15 01:32:46;;;;;;;6.30;5.70;;;25.50;58.30;;;;;;5051689;28;20060;-75
2022/08/15 01:35:13;;;;;;;5.68;5.07;;;25.50;58.30;;;;;;5041603;28;20041;-75
2022/08/15 01:37:40;;;;;;;6.93;5.47;;;25.20;60.50;;;;;;5031851;28;20063;-75
2022/08/15 01:40:11;;;;;;;6.68;6.07;;;25.40;58.20;;;;;;5031945;28;20061;-74
2022/08/15 01:42:42;;;;;;;5.80;5.25;;;25.40;61.10;;;;;;5031505;28;20053;-76
2022/08/15 01:45:10;;;;;;;7.45;5.45;;;25.40;58.20;;;;;;5040008;28;20084;-74
2022/08/15 01:47:39;;;;;;;5.60;5.03;;;25.40;58.30;;;;;;5052528;28;20467;-75
2022/08/15 01:50:08;;;;;;;6.20;5.60;;;25.40;60.20;;;;;;5051366;28;20049;-75
2022/08/15 01:52:41;;;;;;;7.93;6.22;;;25.40;58.30;;;;;;5052613;28;20072;-75
2022/08/15 01:55:08;;;;;;;6.38;5.78;;;25.30;60.20;;;;;;5042512;28;20051;-75
2022/08/15 01:57:35;;;;;;;6.82;6.05;;;25.40;58.30;;;;;;5031366;28;20053;-75
2022/08/15 02:00:04;;;;;;;6.07;5.53;;;25.40;58.30;;;;;;5031287;28;20061;-75
2022/08/15 02:02:31;;;;;;;6.38;5.47;;;25.30;58.20;;;;;;5031566;28;20151;-75
2022/08/15 02:04:58;;;;;;;6.18;5.57;;;25.40;58.30;;;;;;5037773;28;20049;-75
2022/08/15 02:07:28;;;;;;;6.15;5.55;;;25.30;61.10;;;;;;5051389;28;20059;-75
2022/08/15 02:09:55;;;;;;;7.57;5.95;;;24.80;59.50;;;;;;5051290;28;20524;-76
2022/08/15 02:12:24;;;;;;;6.63;5.93;;;25.30;58.30;;;;;;5051197;28;20465;-72
2022/08/15 02:14:50;;;;;;;7.10;6.13;;;25.20;58.20;;;;;;5044994;28;20549;-72
2022/08/15 02:17:19;;;;;;;7.65;6.05;;;25.30;58.30;;;;;;5031211;28;20123;-72
2022/08/15 02:19:48;;;;;;;7.68;5.88;;;25.30;58.30;;;;;;5031177;28;20089;-72
2022/08/15 02:22:15;;;;;;;6.75;6.15;;;24.80;59.10;;;;;;5030613;28;20457;-72
2022/08/15 02:24:41;;;;;;;6.15;5.55;;;25.30;58.30;;;;;;5035040;28;20063;-72
2022/08/15 02:27:08;;;;;;;6.53;5.88;;;25.30;58.30;;;;;;5011078;28;20060;-72
2022/08/15 02:29:35;;;;;;;6.70;6.00;;;25.30;58.30;;;;;;5011330;28;20052;-72
2022/08/15 02:32:04;;;;;;;6.97;5.80;;;25.20;58.20;;;;;;5011317;28;20127;-74
2022/08/15 02:34:32;;;;;;;6.57;5.85;;;25.20;58.20;;;;;;5016846;28;20085;-72
2022/08/15 02:36:59;;;;;;;7.20;6.25;;;25.40;60.10;;;;;;5049794;28;20107;-72
2022/08/15 02:39:26;;;;;;;7.00;6.30;;;25.30;58.40;;;;;;5034075;28;20414;-74
2022/08/15 02:41:53;;;;;;;7.35;6.07;;;25.20;58.30;;;;;;5037546;28;20124;-72
2022/08/15 02:44:20;;;;;;;7.45;6.60;;;25.20;60.30;;;;;;5030744;28;20058;-72
2022/08/15 02:46:49;;;;;;;6.82;5.72;;;25.20;58.30;;;;;;5030362;28;20049;-72
2022/08/15 02:49:16;;;;;;;6.50;5.90;;;25.20;58.30;;;;;;5030591;28;20053;-72
2022/08/15 02:51:46;;;;;;;7.50;5.38;;;25.20;58.30;;;;;;5030326;28;20237;-73
2022/08/15 02:54:14;;;;;;;6.30;5.70;;;25.20;58.30;;;;;;5030785;28;20107;-72
2022/08/15 02:56:41;;;;;;;6.38;5.78;;;25.20;58.30;;;;;;5026208;28;20049;-74
2022/08/15 02:59:08;;;;;;;6.75;6.05;;;25.20;58.30;;;;;;5031818;28;20061;-72
2022/08/15 03:01:37;;;;;;;6.03;5.43;;;25.20;58.30;;;;;;5040076;28;20505;-75
2022/08/15 03:04:04;;;;;;;7.30;6.60;;;25.20;58.30;;;;;;5051588;28;20132;-72
2022/08/15 03:06:32;;;;;;;6.43;5.82;;;25.20;58.30;;;;;;5051175;28;20128;-73
2022/08/15 03:09:02;;;;;;;6.53;5.93;;;25.20;58.40;;;;;;5051600;28;20436;-75
2022/08/15 03:11:30;;;;;;;6.72;6.13;;;25.20;58.40;;;;;;5044476;28;20053;-72
2022/08/15 03:13:57;;;;;;;7.55;6.55;;;25.20;58.40;;;;;;5030197;28;20145;-75
2022/08/15 03:16:25;;;;;;;8.32;6.70;;;25.10;60.50;;;;;;5031409;28;20065;-73
2022/08/15 03:18:51;;;;;;;7.13;6.43;;;25.10;58.30;;;;;;5031325;28;20072;-73
2022/08/15 03:21:19;;;;;;;7.00;6.30;;;25.10;61.00;;;;;;5034674;28;20159;-72
2022/08/15 03:23:48;;;;;;;6.32;5.72;;;25.10;58.30;;;;;;5066844;28;20056;-73
2022/08/15 03:26:17;;;;;;;6.70;6.07;;;25.00;58.30;;;;;;5050101;28;20049;-74
2022/08/15 03:28:44;;;;;;;6.85;6.15;;;25.10;58.30;;;;;;5050316;28;20149;-72
2022/08/15 03:31:11;;;;;;;6.63;6.00;;;25.10;58.40;;;;;;5047230;28;20417;-72
2022/08/15 03:33:39;;;;;;;7.32;6.63;;;25.20;60.70;;;;;;5030427;28;20445;-72
2022/08/15 03:36:06;;;;;;;7.20;6.50;;;25.10;58.40;;;;;;5031247;28;20140;-72
2022/08/15 03:38:33;;;;;;;6.95;6.25;;;25.10;58.40;;;;;;5031038;28;20055;-72
2022/08/15 03:40:59;;;;;;;6.85;6.25;;;25.10;58.40;;;;;;5030232;28;20128;-72
2022/08/15 03:43:28;;;;;;;6.85;6.15;;;25.10;58.40;;;;;;5049996;28;20494;-72
2022/08/15 03:45:56;;;;;;;6.38;5.78;;;25.00;60.10;;;;;;5050103;28;20048;-72
2022/08/15 03:48:24;;;;;;;7.55;6.45;;;25.00;58.40;;;;;;5052142;28;20160;-72
2022/08/15 03:50:52;;;;;;;7.05;6.35;;;25.00;58.40;;;;;;5053362;28;20053;-72
2022/08/15 03:53:18;;;;;;;7.18;6.47;;;25.00;58.40;;;;;;5049592;28;20461;-72
2022/08/15 03:55:45;;;;;;;6.97;6.25;;;25.00;58.40;;;;;;5033715;28;20567;-72
2022/08/15 03:58:12;;;;;;;7.05;6.32;;;25.00;58.40;;;;;;5033789;28;20613;-72
2022/08/15 04:00:43;;;;;;;7.60;6.88;;;25.00;58.40;;;;;;5033381;28;20165;-72
2022/08/15 04:03:10;;;;;;;7.38;6.68;;;25.00;58.40;;;;;;5051208;28;20056;-72
2022/08/15 04:05:38;;;;;;;7.30;6.53;;;25.00;58.40;;;;;;5069913;28;20049;-72
2022/08/15 04:08:05;;;;;;;7.32;6.63;;;25.00;58.40;;;;;;5053467;28;20061;-72
2022/08/15 04:10:32;;;;;;;7.70;6.90;;;24.90;60.00;;;;;;5053069;28;20057;-72
2022/08/15 04:12:59;;;;;;;7.40;6.70;;;24.90;58.40;;;;;;5036199;28;20057;-74
2022/08/15 04:15:27;;;;;;;6.90;6.25;;;24.90;58.40;;;;;;5033394;28;20065;-72
2022/08/15 04:17:55;;;;;;;7.03;6.32;;;24.90;58.40;;;;;;5033415;28;20089;-72
2022/08/15 04:20:22;;;;;;;7.55;6.75;;;24.90;58.40;;;;;;5033279;28;20127;-72
2022/08/15 04:22:49;;;;;;;7.03;6.35;;;24.90;58.40;;;;;;5047860;28;20056;-72
2022/08/15 04:25:18;;;;;;;6.90;5.93;;;24.90;58.30;;;;;;5053049;28;20063;-72
2022/08/15 04:27:45;;;;;;;7.22;6.53;;;24.90;61.70;;;;;;5053279;28;20469;-72
2022/08/15 04:30:12;;;;;;;7.00;6.30;;;24.90;58.40;;;;;;5052867;28;20065;-72
2022/08/15 04:32:39;;;;;;;7.40;6.35;;;24.90;60.70;;;;;;5039090;28;20410;-72
2022/08/15 04:35:10;;;;;;;7.50;6.70;;;24.90;58.40;;;;;;5033140;28;20057;-72
2022/08/15 04:37:39;;;;;;;7.25;6.55;;;24.90;58.40;;;;;;5032971;28;20460;-72
2022/08/15 04:40:07;;;;;;;6.95;6.32;;;24.90;58.50;;;;;;5033766;28;20449;-72
2022/08/15 04:42:36;;;;;;;7.05;6.10;;;23.50;60.90;;;;;;5044824;28;20492;-72
2022/08/15 04:45:02;;;;;;;6.95;6.25;;;24.80;58.40;;;;;;5052493;28;20174;-72
2022/08/15 04:47:29;;;;;;;7.85;7.05;;;24.90;61.50;;;;;;5053694;28;20124;-72
2022/08/15 04:49:56;;;;;;;7.47;6.68;;;24.80;58.50;;;;;;5052454;28;20049;-74
2022/08/15 04:52:24;;;;;;;7.43;6.72;;;25.00;59.80;;;;;;5041211;28;20136;-72
2022/08/15 04:54:50;;;;;;;7.32;6.63;;;24.80;58.50;;;;;;5032672;28;20059;-72
2022/08/15 04:57:17;;;;;;;6.78;6.18;;;24.90;60.60;;;;;;5032359;28;20080;-73
2022/08/15 04:59:44;;;;;;;7.13;6.53;;;24.80;58.50;;;;;;5031763;28;20067;-74
2022/08/15 05:02:12;;;;;;;7.90;7.18;;;24.70;58.90;;;;;;5032984;28;20098;-74
2022/08/15 05:04:40;;;;;;;6.82;6.10;;;24.80;58.50;;;;;;5032210;28;20055;-74
2022/08/15 05:07:07;;;;;;;7.88;7.07;;;24.80;58.50;;;;;;5033414;28;20547;-74
2022/08/15 05:09:35;;;;;;;7.20;6.50;;;24.80;60.90;;;;;;5032139;28;20123;-74
2022/08/15 05:12:03;;;;;;;7.60;6.80;;;24.90;58.50;;;;;;5039289;28;20129;-74
2022/08/15 05:14:29;;;;;;;7.30;6.60;;;24.90;60.40;;;;;;5051974;28;20060;-74
2022/08/15 05:16:56;;;;;;;7.22;6.53;;;24.80;58.40;;;;;;5052149;28;20053;-74
2022/08/15 05:19:23;;;;;;;7.00;6.30;;;24.80;58.50;;;;;;5052971;28;20051;-74
2022/08/15 05:21:50;;;;;;;7.13;6.53;;;24.80;60.60;;;;;;5045764;28;20045;-74
2022/08/15 05:24:17;;;;;;;7.55;6.80;;;24.80;58.50;;;;;;5031937;28;20061;-74
2022/08/15 05:26:45;;;;;;;7.63;6.50;;;23.70;60.20;;;;;;5031599;28;20140;-74
2022/08/15 05:29:12;;;;;;;7.25;6.55;;;24.80;58.50;;;;;;5032030;28;20061;-74
2022/08/15 05:31:39;;;;;;;6.95;6.32;;;24.90;60.70;;;;;;5034914;28;20142;-73
2022/08/15 05:34:05;;;;;;;6.95;6.25;;;24.80;58.50;;;;;;5051913;28;20063;-72
2022/08/15 05:36:34;;;;;;;7.38;6.68;;;24.10;60.50;;;;;;5052591;28;20132;-72
2022/08/15 05:39:01;;;;;;;7.68;6.95;;;24.80;58.50;;;;;;5051872;28;20412;-72
2022/08/15 05:41:31;;;;;;;7.40;6.70;;;24.80;58.50;;;;;;5049971;28;20147;-73
2022/08/15 05:44:02;;;;;;;7.18;6.47;;;24.80;58.50;;;;;;5049012;28;20052;-72
2022/08/15 05:46:43;;;;;;;7.65;6.95;;;24.80;58.50;;;;;;5051027;28;20410;-72
2022/08/15 05:49:19;;;;;;;6.88;6.22;;;24.80;58.50;;;;;;5068299;28;20137;-73
2022/08/15 05:51:48;;;;;;;6.90;6.28;;;24.60;60.00;;;;;;5033847;28;20053;-73
2022/08/15 05:54:20;;;;;;;6.82;6.13;;;24.80;58.60;;;;;;5031346;28;20061;-72
2022/08/15 05:56:52;;;;;;;6.97;6.28;;;24.90;61.60;;;;;;5031148;28;20068;-72
2022/08/15 05:59:20;;;;;;;7.55;6.57;;;24.60;60.70;;;;;;5032334;28;20084;-72
2022/08/15 06:01:49;;;;;;;6.75;6.07;;;24.60;60.50;;;;;;5051211;28;20160;-72
2022/08/15 06:04:19;;;;;;;7.10;6.50;;;24.40;60.40;;;;;;5051190;28;20060;-72
2022/08/15 06:06:46;;;;;;;6.63;6.03;;;24.90;61.20;;;;;;5050857;28;20049;-73
2022/08/15 06:09:24;;;;;;;7.07;6.38;;;24.80;58.50;;;;;;5051018;28;20565;-72
2022/08/15 06:11:53;;;;;;;6.93;6.25;;;25.00;60.30;;;;;;5011063;28;20054;-72
2022/08/15 06:14:26;;;;;;;7.30;6.60;;;25.00;61.30;;;;;;5011549;28;20519;-73
2022/08/15 06:16:54;;;;;;;7.13;6.47;;;24.80;58.50;;;;;;5011432;28;20049;-72
2022/08/15 06:19:23;;;;;;;7.97;6.88;;;24.80;58.50;;;;;;5012829;28;20422;-72
2022/08/15 06:21:53;;;;;;;7.25;6.50;;;24.80;58.50;;;;;;5050095;28;20049;-72
2022/08/15 06:24:22;;;;;;;7.18;6.47;;;24.90;61.40;;;;;;5052026;28;20049;-72
2022/08/15 06:26:53;;;;;;;7.20;6.50;;;24.80;58.50;;;;;;5050890;28;20049;-72
2022/08/15 06:29:36;;;;;;;6.57;5.97;;;24.80;58.60;;;;;;5050705;28;20052;-72
2022/08/15 06:32:04;;;;;;;7.00;6.40;;;24.80;58.40;;;;;;5029554;28;20137;-74
2022/08/15 06:34:34;;;;;;;7.28;6.63;;;24.80;58.40;;;;;;5030724;28;20061;-73
2022/08/15 06:37:03;;;;;;;7.20;6.50;;;24.80;58.40;;;;;;5031082;28;20059;-72
2022/08/15 06:39:32;;;;;;;6.63;6.00;;;24.90;58.50;;;;;;5031208;28;20049;-72
2022/08/15 06:42:01;;;;;;;7.60;6.60;;;24.90;58.40;;;;;;5047440;28;20048;-72
2022/08/15 06:44:30;;;;;;;6.28;5.68;;;24.90;61.10;;;;;;5050261;28;20552;-73
2022/08/15 06:47:03;;;;;;;7.10;6.40;;;24.40;60.40;;;;;;5050476;28;20056;-72
2022/08/15 06:49:30;;;;;;;7.70;6.38;;;24.90;58.40;;;;;;5035930;28;20052;-72
2022/08/15 06:51:57;;;;;;;6.85;6.15;;;24.90;58.40;;;;;;5013031;28;20053;-71
2022/08/15 06:54:26;;;;;;;7.00;6.30;;;24.90;58.40;;;;;;5030411;28;20160;-72
2022/08/15 06:56:55;;;;;;;6.85;6.25;;;23.90;60.80;;;;;;5030784;28;20554;-72
2022/08/15 06:59:33;;;;;;;6.88;6.28;;;24.90;58.30;;;;;;5030803;28;20083;-72
2022/08/15 07:02:04;;;;;;;6.70;6.10;;;24.90;58.30;;;;;;5010792;28;20065;-72
2022/08/15 07:04:34;;;;;;;6.90;6.28;;;24.90;58.30;;;;;;5010592;28;20551;-72
2022/08/15 07:07:04;;;;;;;6.05;5.53;;;25.00;58.40;;;;;;5010848;28;20053;-72
2022/08/15 07:09:45;;;;;;;6.38;5.78;;;24.80;58.20;;;;;;5013200;28;20085;-71
2022/08/15 07:12:21;;;;;;;6.53;5.93;;;24.80;58.80;;;;;;5050336;28;20477;-72
2022/08/15 07:14:54;;;;;;;7.28;6.10;;;24.90;58.70;;;;;;5050485;28;20063;-74
2022/08/15 07:17:23;;;;;;;6.28;5.68;;;25.00;58.10;;;;;;5050355;28;20049;-71
2022/08/15 07:19:51;;;;;;;6.25;5.65;;;24.90;58.10;;;;;;5063077;28;20077;-72
2022/08/15 07:22:17;;;;;;;6.47;5.88;;;25.00;58.60;;;;;;5029915;28;20108;-71
2022/08/15 07:24:48;;;;;;;6.15;5.60;;;24.90;58.00;;;;;;5033807;28;20132;-73
2022/08/15 07:27:16;;;;;;;6.00;5.45;;;24.90;58.00;;;;;;5033656;28;20103;-72
2022/08/15 07:29:44;;;;;;;6.50;5.90;;;24.90;58.00;;;;;;5035037;28;20124;-72
2022/08/15 07:32:14;;;;;;;6.10;5.60;;;24.90;58.00;;;;;;5035229;28;20136;-71
2022/08/15 07:34:53;;;;;;;5.80;5.30;;;24.90;58.00;;;;;;5033130;28;20045;-74
2022/08/15 07:37:22;;;;;;;6.60;5.97;;;24.80;61.70;;;;;;5033651;28;20132;-71
2022/08/15 07:39:56;;;;;;;6.18;5.60;;;24.90;58.00;;;;;;5049450;28;20056;-73
2022/08/15 07:42:23;;;;;;;;;;;24.90;57.90;;;;;;5033644;28;20053;-75
2022/08/15 07:44:51;;;;;;;6.40;5.80;;;24.90;59.90;;;;;;5033974;28;19920;-75
2022/08/15 07:47:24;;;;;;;6.05;5.55;;;24.90;61.00;;;;;;5034022;28;20475;-75
2022/08/15 07:49:58;;;;;;;6.40;5.80;;;24.90;57.90;;;;;;5034354;28;20099;-74
2022/08/15 07:52:24;;;;;;;6.30;5.72;;;24.90;61.00;;;;;;5033815;28;20394;-74
2022/08/15 07:54:52;;;;;;;6.03;5.43;;;25.00;57.90;;;;;;5034818;28;20037;-74
2022/08/15 07:57:22;;;;;;;6.20;5.60;;;25.10;57.90;;;;;;5034055;28;20406;-74
2022/08/15 08:00:14;;;;;;;6.30;5.70;;;25.10;57.90;;;;;;5036039;28;20061;-75
2022/08/15 08:02:46;;;;;;;6.30;5.70;;;25.20;57.90;;;;;;5053756;28;20056;-74
2022/08/15 08:05:13;;;;;;;6.38;5.78;;;25.00;59.90;;;;;;5053737;28;20133;-72
2022/08/15 08:07:40;;;;;;;5.95;5.45;;;25.20;57.80;;;;;;5053386;28;20132;-74
2022/08/15 08:10:12;;;;;;;5.72;5.22;;;25.30;57.80;;;;;;5049087;28;20045;-72
2022/08/15 08:12:46;;;;;;;6.00;5.38;;;25.40;57.70;;;;;;5033541;28;20053;-73
2022/08/15 08:15:17;;;;;;;5.90;5.30;;;25.50;59.90;;;;;;5033684;28;20057;-72
2022/08/15 08:17:46;;;;;;;5.40;4.90;;;25.50;57.60;;;;;;5033185;28;20160;-74
2022/08/15 08:20:19;;;;;;;5.88;5.28;;;25.60;57.50;;;;;;5038497;28;20136;-73
2022/08/15 08:22:50;;;;;;;5.97;5.38;;;25.60;57.30;;;;;;5052630;28;20144;-72
2022/08/15 08:25:21;;;;;;;6.05;5.20;;;25.70;57.30;;;;;;5053328;28;20057;-73
2022/08/15 08:27:52;;;;;;;5.55;5.05;;;25.80;57.20;;;;;;5034159;28;20052;-74
2022/08/15 08:30:21;;;;;;;5.65;5.10;;;25.90;60.40;;;;;;5030123;28;20056;-73
2022/08/15 08:32:53;;;;;;;5.68;5.18;;;25.90;57.00;;;;;;5032571;28;20092;-73
2022/08/15 08:35:28;;;;;;;5.88;5.38;;;26.20;60.00;;;;;;5033090;28;20053;-74
2022/08/15 08:38:12;;;;;;;5.43;4.93;;;25.90;56.80;;;;;;5032993;28;20050;-73
2022/08/15 08:43:33;;;;;;;6.18;5.57;;;26.00;56.80;;;;;;5052947;28;20421;-72
2022/08/15 08:46:01;;;;;;;;;;;26.00;56.70;;;;;;5053357;28;20056;-72
2022/08/15 08:48:36;;;;;;;5.70;5.07;;;26.10;57.00;;;;;;5052171;28;19927;-72
2022/08/15 08:51:08;;;;;;;5.95;5.30;;;26.10;56.80;;;;;;5039697;28;20050;-72
2022/08/15 08:53:38;;;;;;;5.53;5.00;;;26.20;56.70;;;;;;5032788;28;20061;-72
2022/08/15 08:56:09;;;;;;;8.27;5.05;;;26.20;59.70;;;;;;5032979;28;20115;-72
2022/08/15 08:58:38;;;;;;;5.50;5.00;;;26.20;57.10;;;;;;5032609;28;20061;-72
2022/08/15 09:01:06;;;;;;;5.40;4.90;;;26.20;56.40;;;;;;5043926;28;20053;-72
2022/08/15 09:03:36;;;;;;;6.20;5.60;;;26.30;56.40;;;;;;5052127;28;20051;-72
2022/08/15 09:06:03;;;;;;;5.35;4.85;;;26.30;56.30;;;;;;5052525;28;20057;-74
2022/08/15 09:08:32;;;;;;;5.35;4.85;;;26.40;56.30;;;;;;5068861;28;20411;-72
2022/08/15 09:11:02;;;;;;;6.57;4.93;;;26.30;60.20;;;;;;5048847;28;20067;-74
2022/08/15 09:13:31;;;;;;;5.28;4.78;;;26.40;56.20;;;;;;5032268;28;20136;-72
2022/08/15 09:16:00;;;;;;;5.30;4.80;;;26.50;56.20;;;;;;5032105;28;20064;-72
2022/08/15 09:18:27;;;;;;;6.15;4.70;;;26.50;56.20;;;;;;5032140;28;20068;-71
2022/08/15 09:20:56;;;;;;;7.63;5.88;;;26.50;56.30;;;;;;5041175;28;20490;-71
2022/08/15 09:23:23;;;;;;;6.35;5.35;;;26.50;56.40;;;;;;5051675;28;20068;-71
2022/08/15 09:25:54;;;;;;;6.70;5.40;;;26.50;56.40;;;;;;5051780;28;20056;-72
2022/08/15 09:28:25;;;;;;;6.43;5.70;;;26.50;56.40;;;;;;5068203;28;20059;-72
2022/08/15 09:30:51;;;;;;;7.05;5.60;;;26.50;56.50;;;;;;5042405;28;20414;-72
2022/08/15 09:33:55;;;;;;;6.32;5.72;;;26.50;56.60;;;;;;5032924;28;20136;-72
2022/08/15 09:36:32;;;;;;;6.75;5.63;;;26.60;56.80;;;;;;5031449;28;20056;-72
2022/08/15 09:39:07;;;;;;;7.63;5.53;;;26.60;56.80;;;;;;5031716;28;20064;-72
2022/08/15 09:41:51;;;;;;;5.80;5.18;;;26.60;56.80;;;;;;5031908;28;20049;-72
2022/08/15 09:44:34;;;;;;;6.95;5.55;;;26.60;59.10;;;;;;5031523;28;20092;-72
2022/08/15 09:47:16;;;;;;;6.07;5.47;;;26.70;56.90;;;;;;5032240;28;20500;-72
2022/08/15 09:50:01;;;;;;;7.35;5.70;;;26.70;56.90;;;;;;5031414;28;20108;-73
2022/08/15 09:52:38;;;;;;;8.85;5.88;;;26.70;57.00;;;;;;5030607;28;20061;-72
2022/08/15 09:55:15;;;;;;;6.60;5.15;;;26.70;57.00;;;;;;5032696;28;20138;-74
2022/08/15 09:57:49;;;;;;;9.18;5.75;;;26.70;57.00;;;;;;5031272;28;20644;-72
2022/08/15 10:00:24;;;;;;;8.00;5.68;;;26.60;57.50;;;;;;5034151;28;20048;-72
2022/08/15 10:02:52;;;;;;;6.13;5.53;;;26.80;57.10;;;;;;5051342;28;20060;-72
2022/08/15 10:05:25;;;;;;;8.18;5.68;;;26.70;57.00;;;;;;5067429;28;20417;-72
2022/08/15 10:07:54;;;;;;;6.40;5.50;;;26.90;59.30;;;;;;5050315;28;20397;-72
2022/08/15 10:10:24;;;;;;;6.20;5.60;;;26.80;57.00;;;;;;5047875;28;20089;-73
2022/08/15 10:13:19;;;;;;;6.40;5.80;;;26.80;57.00;;;;;;5027613;28;20136;-71
2022/08/15 10:15:46;;;;;;;7.50;5.60;;;26.80;57.00;;;;;;5031076;28;20060;-72
2022/08/15 10:18:40;;;;;;;6.38;5.30;;;26.70;57.10;;;;;;5029989;28;20414;-73
2022/08/15 10:21:17;;;;;;;7.45;5.55;;;26.80;57.10;;;;;;5032411;28;20386;-72
2022/08/15 10:23:46;;;;;;;5.40;4.90;;;26.80;57.10;;;;;;5030568;28;20053;-72
2022/08/15 10:26:26;;;;;;;5.68;4.97;;;26.80;57.10;;;;;;5030290;28;20053;-74
2022/08/15 10:29:00;;;;;;;5.60;5.10;;;26.80;57.10;;;;;;5028750;28;20534;-72
2022/08/15 10:31:28;;;;;;;5.72;5.05;;;26.80;57.10;;;;;;5028015;28;20115;-72
2022/08/15 10:33:59;;;;;;;6.25;5.13;;;26.80;57.00;;;;;;5031491;28;20065;-74
2022/08/15 10:36:26;;;;;;;5.82;5.22;;;26.80;57.00;;;;;;5047405;28;20057;-72
2022/08/15 10:39:00;;;;;;;5.55;5.03;;;26.90;57.10;;;;;;5031451;28;20084;-72
2022/08/15 10:41:31;;;;;;;5.60;5.00;;;26.80;57.10;;;;;;5030905;28;20061;-72
2022/08/15 10:44:02;;;;;;;6.63;5.10;;;26.80;59.30;;;;;;5029645;28;20049;-72
2022/08/15 10:46:40;;;;;;;6.68;4.80;;;26.80;56.90;;;;;;5030275;28;20053;-72
2022/08/15 10:49:12;;;;;;;6.70;5.05;;;26.80;56.90;;;;;;5031136;28;20052;-72
2022/08/15 10:51:52;;;;;;;5.95;5.30;;;26.90;57.00;;;;;;5046964;28;20132;-72
2022/08/15 10:54:28;;;;;;;7.00;5.07;;;26.90;57.00;;;;;;5030411;28;20064;-71
2022/08/15 10:56:55;;;;;;;6.25;4.75;;;26.90;57.00;;;;;;5030969;28;20167;-71
2022/08/15 10:59:24;;;;;;;5.88;5.28;;;26.80;59.80;;;;;;5030471;28;20045;-71
2022/08/15 11:01:51;;;;;;;5.75;5.15;;;26.90;57.00;;;;;;5029454;28;20055;-71
2022/08/15 11:04:26;;;;;;;5.07;4.57;;;26.90;57.00;;;;;;5030719;28;20057;-72
2022/08/15 11:06:53;;;;;;;5.72;5.13;;;26.80;56.90;;;;;;5029064;28;20053;-72
2022/08/15 11:09:22;;;;;;;5.18;4.68;;;26.90;57.00;;;;;;5045239;28;20418;-72
2022/08/15 11:11:51;;;;;;;5.75;4.68;;;26.90;57.00;;;;;;5045314;28;20045;-72
2022/08/15 11:14:19;;;;;;;4.75;4.35;;;27.50;60.00;;;;;;5031019;28;20060;-72
2022/08/15 11:16:49;;;;;;;5.63;5.10;;;26.90;57.00;;;;;;5029992;28;20053;-72
2022/08/15 11:19:18;;;;;;;4.93;4.43;;;26.90;57.00;;;;;;5027519;28;20053;-73
2022/08/15 11:21:49;;;;;;;5.22;4.72;;;26.90;57.00;;;;;;5029960;28;20123;-74
2022/08/15 11:24:27;;;;;;;5.55;4.50;;;26.90;57.00;;;;;;5033102;28;20079;-72
2022/08/15 11:27:09;;;;;;;5.05;4.55;;;26.90;56.90;;;;;;5032902;28;20095;-73
2022/08/15 11:29:36;;;;;;;4.78;4.38;;;26.90;56.90;;;;;;5028245;28;20502;-72
2022/08/15 11:32:03;;;;;;;4.78;4.35;;;26.90;57.00;;;;;;5030489;28;20043;-72
2022/08/15 11:34:35;;;;;;;5.72;4.65;;;26.90;57.00;;;;;;5030020;28;20129;-73
2022/08/15 11:37:04;;;;;;;5.85;4.60;;;26.90;57.00;;;;;;5028683;28;20055;-73
2022/08/15 11:39:32;;;;;;;5.30;4.50;;;26.90;57.10;;;;;;5029251;28;20120;-72
2022/08/15 11:42:02;;;;;;;7.05;4.53;;;26.80;59.60;;;;;;5030472;28;20054;-72
2022/08/15 11:44:36;;;;;;;5.05;4.55;;;26.90;57.10;;;;;;5028808;28;20054;-72
2022/08/15 11:47:05;;;;;;;5.28;4.78;;;26.80;56.60;;;;;;5030734;28;20054;-72
2022/08/15 11:49:33;;;;;;;5.22;4.70;;;26.80;57.10;;;;;;5027210;28;20057;-72
2022/08/15 11:52:02;;;;;;;5.90;5.30;;;26.80;57.10;;;;;;5029753;28;20127;-72
2022/08/15 11:54:28;;;;;;;5.32;4.85;;;26.80;57.20;;;;;;5029560;28;20099;-73
2022/08/15 11:56:58;;;;;;;5.32;4.82;;;26.80;59.50;;;;;;5031858;28;20050;-72
2022/08/15 11:59:27;;;;;;;6.13;5.18;;;26.80;57.20;;;;;;5029327;28;20049;-73
2022/08/15 12:02:12;;;;;;;5.65;4.78;;;26.80;57.20;;;;;;5028463;28;20504;-72
2022/08/15 12:04:40;;;;;;;5.43;4.93;;;26.90;57.30;;;;;;5047950;28;20057;-71
2022/08/15 12:07:12;;;;;;;6.07;4.78;;;26.80;57.30;;;;;;5029860;28;20053;-72
2022/08/15 12:09:40;;;;;;;5.40;4.88;;;26.80;57.30;;;;;;5031691;28;20501;-72
2022/08/15 12:12:24;;;;;;;5.97;4.82;;;26.80;57.30;;;;;;5033110;28;20087;-73
2022/08/15 12:14:50;;;;;;;7.50;4.70;;;26.90;57.30;;;;;;5035126;28;20088;-73
2022/08/15 12:17:24;;;;;;;6.25;5.07;;;26.90;57.40;;;;;;5053342;28;20057;-72
2022/08/15 12:19:54;;;;;;;6.30;4.93;;;26.90;57.30;;;;;;5069831;28;20053;-72
2022/08/15 12:22:29;;;;;;;5.55;5.05;;;27.10;57.50;;;;;;5069608;28;20085;-72
2022/08/15 12:24:56;;;;;;;5.60;5.00;;;26.90;57.30;;;;;;5051484;28;20136;-72
2022/08/15 12:27:24;;;;;;;5.70;5.18;;;26.90;57.30;;;;;;5034474;28;20136;-73
2022/08/15 12:29:51;;;;;;;5.88;5.28;;;27.10;59.70;;;;;;5033705;28;20136;-73
2022/08/15 12:32:19;;;;;;;5.30;4.80;;;26.90;57.40;;;;;;5033796;28;20119;-73
2022/08/15 12:34:46;;;;;;;7.68;5.07;;;27.00;57.30;;;;;;5032841;28;20053;-73
2022/08/15 12:37:14;;;;;;;5.88;5.30;;;27.00;57.30;;;;;;5047925;28;20132;-73
2022/08/15 12:39:43;;;;;;;6.53;5.03;;;27.00;57.30;;;;;;5036714;28;20060;-73
2022/08/15 12:42:14;;;;;;;6.63;5.35;;;26.60;57.10;;;;;;5032709;28;20134;-73
2022/08/15 12:44:42;;;;;;;5.43;4.93;;;26.90;59.40;;;;;;5032854;28;20057;-72
2022/08/15 12:47:09;;;;;;;5.55;4.97;;;27.00;57.30;;;;;;5033352;28;20136;-72
2022/08/15 12:49:36;;;;;;;7.05;5.22;;;26.90;57.20;;;;;;5033898;28;20133;-72
2022/08/15 12:52:03;;;;;;;5.70;5.20;;;27.00;57.30;;;;;;5032680;28;20141;-72
2022/08/15 12:54:30;;;;;;;5.85;5.35;;;27.00;57.30;;;;;;5032034;28;20058;-75
2022/08/15 12:56:56;;;;;;;5.38;4.93;;;27.00;57.30;;;;;;5042993;28;20088;-73
2022/08/15 12:59:23;;;;;;;5.75;5.13;;;26.90;57.20;;;;;;5032182;28;20136;-73
2022/08/15 13:01:51;;;;;;;5.82;5.20;;;26.90;57.20;;;;;;5030328;28;20418;-73
2022/08/15 13:04:18;;;;;;;5.47;4.88;;;27.00;57.30;;;;;;5030204;28;20136;-73